Time;durP1;ratioP1;P1;durP2;ratioP2;P2;SDS_P1;SDS_P2;PMS_P1;PMS_P2;Temp;Humidity;BMP_temperature;BMP_pressure;BME280_temperature;BME280_humidity;BME280_pressure;Samples;Min_cycle;Max_cycle;Signal;HPM_P1;HPM_P2
2023/05/06 00:02:12;;;;;;;6.33;2.00;;;14.30;99.90;;;;;;7286986;19;20200;-79
2023/05/06 00:04:38;;;;;;;4.73;2.00;;;14.10;99.90;;;;;;7287454;19;20192;-82
2023/05/06 00:07:04;;;;;;;4.77;1.93;;;14.10;99.90;;;;;;7298514;19;20191;-82
2023/05/06 00:09:30;;;;;;;8.03;2.10;;;14.20;99.90;;;;;;7309616;19;20184;-81
2023/05/06 00:11:56;;;;;;;6.87;2.20;;;14.10;99.90;;;;;;7288146;19;20190;-81
2023/05/06 00:14:21;;;;;;;5.67;2.00;;;14.10;99.90;;;;;;7287017;19;20198;-81
2023/05/06 00:16:49;;;;;;;6.60;1.80;;;14.10;99.90;;;;;;7289036;19;20679;-82
2023/05/06 00:19:15;;;;;;;5.50;1.90;;;14.20;99.90;;;;;;7286781;19;20210;-81
2023/05/06 00:21:41;;;;;;;4.37;1.87;;;14.10;99.90;;;;;;7285799;19;20198;-82
2023/05/06 00:24:07;;;;;;;4.40;1.80;;;14.20;99.90;;;;;;7287307;19;20387;-81
2023/05/06 00:26:32;;;;;;;7.30;2.13;;;14.00;99.90;;;;;;7308563;19;20183;-81
2023/05/06 00:28:58;;;;;;;5.70;2.00;;;13.80;99.90;;;;;;7287822;19;20200;-81
2023/05/06 00:31:24;;;;;;;6.80;2.20;;;13.60;99.90;;;;;;7287100;19;20183;-81
2023/05/06 00:33:50;;;;;;;5.57;2.07;;;13.60;99.90;;;;;;7286389;19;20265;-81
2023/05/06 00:36:16;;;;;;;4.60;1.93;;;13.70;99.90;;;;;;7286562;19;20189;-81
2023/05/06 00:38:42;;;;;;;3.97;1.80;;;13.70;99.90;;;;;;7284927;19;20192;-81
2023/05/06 00:41:07;;;;;;;5.63;1.90;;;13.70;99.90;;;;;;7284839;19;20190;-82
2023/05/06 00:43:33;;;;;;;5.73;2.10;;;13.60;99.90;;;;;;7307098;19;20652;-81
2023/05/06 00:45:59;;;;;;;4.90;2.03;;;13.50;99.90;;;;;;7295301;19;20187;-81
2023/05/06 00:48:25;;;;;;;3.27;1.70;;;13.40;99.90;;;;;;7285444;19;20179;-81
2023/05/06 00:50:51;;;;;;;4.50;2.10;;;13.50;99.90;;;;;;7282777;19;20219;-81
2023/05/06 00:53:20;;;;;;;4.30;2.00;;;13.40;99.90;;;;;;7283308;19;20195;-81
2023/05/06 00:55:48;;;;;;;3.87;2.10;;;13.40;99.90;;;;;;7284912;19;20181;-81
2023/05/06 00:58:14;;;;;;;6.40;2.23;;;13.40;99.90;;;;;;7286834;19;20194;-81
2023/05/06 01:00:41;;;;;;;5.53;2.03;;;13.40;99.90;;;;;;7286475;19;20197;-81
2023/05/06 01:03:07;;;;;;;7.20;2.37;;;13.40;99.90;;;;;;7286084;19;20193;-81
2023/05/06 01:05:46;;;;;;;5.90;1.90;;;13.50;99.90;;;;;;7307092;19;20556;-81
2023/05/06 01:08:20;;;;;;;4.80;2.23;;;13.50;99.90;;;;;;7183690;19;2004469;-81
2023/05/06 01:11:01;;;;;;;6.17;2.40;;;13.60;99.90;;;;;;7285109;19;20234;-81
2023/05/06 01:13:37;;;;;;;4.57;2.20;;;13.50;99.90;;;;;;7286433;19;20189;-81
2023/05/06 01:16:06;;;;;;;6.10;2.33;;;13.40;99.90;;;;;;7284614;19;20731;-81
2023/05/06 01:18:32;;;;;;;5.60;2.30;;;13.40;99.90;;;;;;7286078;19;20187;-80
2023/05/06 01:21:00;;;;;;;6.37;2.33;;;13.30;99.90;;;;;;7284966;19;20197;-81
2023/05/06 01:23:26;;;;;;;6.83;2.60;;;13.30;99.90;;;;;;7285539;19;20188;-81
2023/05/06 01:25:52;;;;;;;5.27;2.30;;;13.30;99.90;;;;;;7285300;19;20541;-81
2023/05/06 01:28:17;;;;;;;6.03;2.70;;;13.30;99.90;;;;;;7283547;19;20185;-81
2023/05/06 01:31:09;;;;;;;4.67;2.03;;;13.40;99.90;;;;;;7285500;19;20632;-82
2023/05/06 01:33:54;;;;;;;4.20;2.07;;;13.40;99.90;;;;;;7263179;19;20192;-81
2023/05/06 01:36:52;;;;;;;4.67;2.20;;;13.40;99.90;;;;;;7284611;19;20194;-81
2023/05/06 01:39:26;;;;;;;5.37;2.30;;;13.40;99.90;;;;;;7182425;19;2005065;-81
2023/05/06 01:41:56;;;;;;;7.10;2.27;;;13.30;99.90;;;;;;7283117;19;20664;-81
2023/05/06 01:44:22;;;;;;;5.77;2.33;;;13.30;99.90;;;;;;7284080;19;20177;-81
2023/05/06 01:46:50;;;;;;;6.40;2.20;;;13.30;99.90;;;;;;7283535;19;20214;-81
2023/05/06 01:49:19;;;;;;;4.57;1.97;;;13.40;99.90;;;;;;7283384;19;20186;-81
2023/05/06 01:51:48;;;;;;;4.03;2.13;;;13.20;99.90;;;;;;7284814;19;20188;-81
2023/05/06 01:54:14;;;;;;;4.27;2.17;;;13.20;99.90;;;;;;7283034;19;20560;-82
2023/05/06 01:56:40;;;;;;;4.70;2.13;;;13.10;99.90;;;;;;7282092;19;20190;-80
2023/05/06 01:59:06;;;;;;;5.57;2.03;;;13.00;99.90;;;;;;7284972;19;20185;-81
2023/05/06 02:01:31;;;;;;;4.67;2.10;;;12.80;99.90;;;;;;7303727;19;20256;-81
2023/05/06 02:03:57;;;;;;;7.47;2.13;;;12.80;99.90;;;;;;7283638;19;20191;-81
2023/05/06 02:06:23;;;;;;;4.33;1.93;;;12.70;99.90;;;;;;7283053;19;20213;-81
2023/05/06 02:08:49;;;;;;;6.00;2.50;;;12.70;99.90;;;;;;7283573;19;20188;-81
2023/05/06 02:11:19;;;;;;;4.63;2.40;;;12.70;99.90;;;;;;7283240;19;20203;-81
2023/05/06 02:13:46;;;;;;;5.13;2.33;;;12.70;99.90;;;;;;7282784;19;20186;-81
2023/05/06 02:16:12;;;;;;;4.67;2.43;;;12.70;99.90;;;;;;7283136;19;20543;-80
2023/05/06 02:18:38;;;;;;;7.63;2.40;;;12.80;99.90;;;;;;7285020;19;20196;-81
2023/05/06 02:21:04;;;;;;;6.00;2.57;;;12.90;99.90;;;;;;7298474;19;20236;-80
2023/05/06 02:23:30;;;;;;;7.93;3.03;;;12.90;99.90;;;;;;7297517;19;20185;-81
2023/05/06 02:25:56;;;;;;;7.13;2.40;;;13.00;99.90;;;;;;7282027;19;20205;-80
2023/05/06 02:28:23;;;;;;;6.80;2.63;;;13.00;99.90;;;;;;7288379;19;20218;-81
2023/05/06 02:30:53;;;;;;;6.80;2.40;;;13.00;99.90;;;;;;7290954;19;20182;-81
2023/05/06 02:33:20;;;;;;;5.47;2.20;;;13.00;99.90;;;;;;7290529;19;20200;-81
2023/05/06 02:35:46;;;;;;;4.30;2.00;;;12.90;99.90;;;;;;7290102;19;20196;-81
2023/05/06 02:38:12;;;;;;;4.60;2.33;;;12.80;99.90;;;;;;7291318;19;20185;-81
2023/05/06 02:40:38;;;;;;;5.67;2.57;;;12.70;99.90;;;;;;7289125;19;20189;-80
2023/05/06 02:43:03;;;;;;;4.17;2.27;;;12.70;99.90;;;;;;7313162;19;20193;-80
2023/05/06 02:45:29;;;;;;;5.73;2.40;;;12.60;99.90;;;;;;7290565;19;20185;-80
2023/05/06 02:47:55;;;;;;;8.03;2.47;;;12.50;99.90;;;;;;7289578;19;20689;-80
2023/05/06 02:50:21;;;;;;;6.00;2.33;;;12.50;99.90;;;;;;7290200;19;20189;-81
2023/05/06 02:52:47;;;;;;;5.90;2.67;;;12.50;99.90;;;;;;7289294;19;20220;-81
2023/05/06 02:55:12;;;;;;;6.63;2.70;;;12.50;99.90;;;;;;7289963;19;20203;-80
2023/05/06 02:57:38;;;;;;;5.90;2.30;;;12.50;99.90;;;;;;7290215;19;20658;-80
2023/05/06 03:00:05;;;;;;;6.97;3.20;;;12.60;99.90;;;;;;7306340;19;20298;-81
2023/05/06 03:02:31;;;;;;;6.63;2.90;;;12.60;99.90;;;;;;7310116;19;20192;-81
2023/05/06 03:04:56;;;;;;;7.53;3.03;;;12.60;99.90;;;;;;7288420;19;20262;-80
2023/05/06 03:07:25;;;;;;;7.27;3.10;;;12.60;99.90;;;;;;7289301;19;20206;-81
2023/05/06 03:09:51;;;;;;;7.93;3.03;;;12.60;99.90;;;;;;7290372;19;20190;-80
2023/05/06 03:12:17;;;;;;;8.87;3.20;;;12.70;99.90;;;;;;7288434;19;20189;-80
2023/05/06 03:14:43;;;;;;;8.07;3.00;;;12.70;99.90;;;;;;7288159;19;20210;-80
2023/05/06 03:17:10;;;;;;;6.67;2.80;;;12.70;99.90;;;;;;7290288;19;20186;-81
2023/05/06 03:19:36;;;;;;;5.87;2.60;;;12.70;99.90;;;;;;7288048;19;20859;-80
2023/05/06 03:22:03;;;;;;;4.93;2.40;;;12.70;99.90;;;;;;7310355;19;20181;-80
2023/05/06 03:24:32;;;;;;;5.70;2.27;;;12.60;99.90;;;;;;7290233;19;20253;-80
2023/05/06 03:26:58;;;;;;;6.90;2.40;;;12.50;99.90;;;;;;7287790;19;20756;-80
2023/05/06 03:29:24;;;;;;;6.10;2.43;;;12.40;99.90;;;;;;7289955;19;21636;-80
2023/05/06 03:31:50;;;;;;;5.27;1.83;;;12.30;99.90;;;;;;7288532;19;20186;-81
2023/05/06 03:34:17;;;;;;;6.97;2.77;;;12.10;99.90;;;;;;7287461;19;20185;-80
2023/05/06 03:36:44;;;;;;;5.10;2.57;;;12.10;99.90;;;;;;7287020;19;20548;-80
2023/05/06 03:39:10;;;;;;;7.20;2.90;;;12.20;99.90;;;;;;7286089;19;20180;-80
2023/05/06 03:41:38;;;;;;;6.53;3.03;;;12.20;99.90;;;;;;7287236;19;20185;-80
2023/05/06 03:44:04;;;;;;;5.57;2.80;;;12.20;99.90;;;;;;7308609;19;20263;-80
2023/05/06 03:46:31;;;;;;;7.40;2.70;;;12.30;99.90;;;;;;7303054;19;20214;-80
2023/05/06 03:48:59;;;;;;;5.63;2.60;;;12.30;99.90;;;;;;7288706;19;20188;-80
2023/05/06 03:51:26;;;;;;;7.23;2.77;;;12.30;99.90;;;;;;7287044;19;20248;-80
2023/05/06 03:53:53;;;;;;;5.67;2.50;;;12.30;99.90;;;;;;7287602;19;20185;-80
2023/05/06 03:56:20;;;;;;;7.33;3.03;;;12.20;99.90;;;;;;7287451;19;20197;-81
2023/05/06 03:58:49;;;;;;;6.53;2.57;;;12.20;99.90;;;;;;7287379;19;20191;-80
2023/05/06 04:01:17;;;;;;;7.13;2.70;;;12.20;99.90;;;;;;7286448;19;20194;-81
2023/05/06 04:03:43;;;;;;;5.83;2.70;;;12.30;99.90;;;;;;7287803;19;20632;-81
2023/05/06 04:06:09;;;;;;;6.53;2.57;;;12.20;99.90;;;;;;7288628;19;20192;-81
2023/05/06 04:08:35;;;;;;;7.30;2.53;;;12.20;99.90;;;;;;7300150;19;20547;-81
2023/05/06 04:11:07;;;;;;;5.80;2.60;;;12.20;99.90;;;;;;7306356;19;20260;-81
2023/05/06 04:13:35;;;;;;;8.60;2.80;;;12.30;99.90;;;;;;7279872;19;20203;-79
2023/05/06 04:16:05;;;;;;;5.27;2.37;;;12.30;99.90;;;;;;7302875;19;20196;-81
2023/05/06 04:18:35;;;;;;;5.33;2.50;;;12.40;99.90;;;;;;7301920;19;20204;-81
2023/05/06 04:21:05;;;;;;;5.90;2.57;;;12.40;99.90;;;;;;7295966;19;20201;-81
2023/05/06 04:23:34;;;;;;;6.23;2.30;;;12.30;99.90;;;;;;7307315;19;20199;-80
2023/05/06 04:26:00;;;;;;;7.40;2.63;;;12.40;99.90;;;;;;7300566;19;20539;-81
2023/05/06 04:28:29;;;;;;;4.50;2.53;;;12.40;99.90;;;;;;7287355;19;20278;-81
2023/05/06 04:30:55;;;;;;;6.30;2.67;;;12.40;99.90;;;;;;7287427;19;20234;-81
2023/05/06 04:33:28;;;;;;;6.20;2.50;;;12.50;99.90;;;;;;7288225;19;21037;-81
2023/05/06 04:35:56;;;;;;;6.77;2.73;;;12.70;99.90;;;;;;7288640;19;20189;-81
2023/05/06 04:38:26;;;;;;;9.37;2.63;;;13.00;99.90;;;;;;7288424;19;20192;-81
2023/05/06 04:40:54;;;;;;;7.00;2.80;;;13.30;99.90;;;;;;7287278;19;20185;-80
2023/05/06 04:43:21;;;;;;;8.03;2.93;;;13.60;99.90;;;;;;7286844;19;20193;-80
2023/05/06 04:45:53;;;;;;;6.90;2.70;;;14.00;99.90;;;;;;7286563;19;20192;-81
2023/05/06 04:48:23;;;;;;;12.43;2.87;;;14.50;99.90;;;;;;7285462;19;20535;-80
2023/05/06 04:50:50;;;;;;;7.40;2.93;;;14.80;99.90;;;;;;7285017;19;20283;-80
2023/05/06 04:53:16;;;;;;;7.07;2.80;;;15.30;99.90;;;;;;7286052;19;20209;-80
2023/05/06 04:55:42;;;;;;;7.83;3.00;;;16.30;99.90;;;;;;7286943;19;20198;-81
2023/05/06 04:58:09;;;;;;;5.57;2.23;;;17.20;99.90;;;;;;7285845;19;20212;-82
2023/05/06 05:00:35;;;;;;;5.73;2.30;;;17.90;99.90;;;;;;7297550;19;20191;-80
2023/05/06 05:03:03;;;;;;;5.97;2.30;;;18.30;99.90;;;;;;7307872;19;20189;-81
2023/05/06 05:05:35;;;;;;;6.60;2.40;;;18.20;99.90;;;;;;7286511;19;20181;-80
2023/05/06 05:08:03;;;;;;;6.23;2.43;;;18.50;99.90;;;;;;7285897;19;20184;-81
2023/05/06 05:10:31;;;;;;;6.80;2.60;;;19.00;99.90;;;;;;7287917;19;20195;-81
2023/05/06 05:12:58;;;;;;;5.63;2.20;;;19.30;99.90;;;;;;7286020;19;20641;-81
2023/05/06 05:15:24;;;;;;;3.87;1.80;;;19.40;99.90;;;;;;7286075;19;20189;-81
2023/05/06 05:17:50;;;;;;;7.20;2.10;;;19.70;99.90;;;;;;7285889;19;20184;-80
2023/05/06 05:20:18;;;;;;;5.57;2.20;;;20.10;99.90;;;;;;7284770;19;20198;-79
2023/05/06 05:22:44;;;;;;;5.37;1.97;;;20.40;99.90;;;;;;7285364;19;20632;-80
2023/05/06 05:25:10;;;;;;;6.00;2.20;;;20.50;99.90;;;;;;7285976;19;20185;-84
2023/05/06 05:27:36;;;;;;;6.33;2.40;;;20.60;99.90;;;;;;7288536;19;20223;-81
2023/05/06 05:30:02;;;;;;;4.97;2.03;;;20.80;99.90;;;;;;7309421;19;20665;-82
2023/05/06 05:32:30;;;;;;;7.53;2.20;;;21.20;99.90;;;;;;7285066;19;20206;-80
2023/05/06 05:34:56;;;;;;;5.03;2.27;;;22.10;99.90;;;;;;7285876;19;20219;-80
2023/05/06 05:37:24;;;;;;;4.03;2.00;;;23.10;99.90;;;;;;7286594;19;20185;-80
2023/05/06 05:39:50;;;;;;;5.27;2.07;;;23.90;99.90;;;;;;7285603;19;20264;-79
2023/05/06 05:42:17;;;;;;;7.30;2.20;;;24.70;99.90;;;;;;7283905;19;20199;-81
2023/05/06 05:44:44;;;;;;;2.93;1.80;;;25.40;99.90;;;;;;7284869;19;20192;-82
2023/05/06 05:47:10;;;;;;;5.00;1.80;;;26.10;99.90;;;;;;7286385;19;20214;-80
2023/05/06 05:49:37;;;;;;;3.87;1.50;;;26.70;99.90;;;;;;7285240;19;20197;-81
2023/05/06 05:52:03;;;;;;;5.77;1.60;;;27.20;99.90;;;;;;7308003;19;20200;-79
2023/05/06 05:54:31;;;;;;;7.03;1.80;;;26.70;99.90;;;;;;7285585;19;20181;-80
2023/05/06 05:56:57;;;;;;;4.73;1.73;;;26.60;99.90;;;;;;7284734;19;20204;-80
2023/05/06 05:59:24;;;;;;;6.57;1.63;;;25.80;99.90;;;;;;7285218;19;20200;-79
2023/05/06 06:01:51;;;;;;;6.30;1.70;;;24.60;99.90;;;;;;7281819;19;20192;-79
2023/05/06 06:04:17;;;;;;;4.53;1.80;;;24.20;99.90;;;;;;7285820;19;20268;-80
2023/05/06 06:06:43;;;;;;;5.03;1.70;;;24.60;99.90;;;;;;7284827;19;20193;-80
2023/05/06 06:09:09;;;;;;;5.57;1.80;;;25.20;99.90;;;;;;7284518;19;20189;-80
2023/05/06 06:11:37;;;;;;;2.28;1.10;;;25.50;99.90;;;;;;7283998;19;20524;-80
2023/05/06 06:14:04;;;;;;;4.45;1.73;;;26.20;99.90;;;;;;7305870;19;20188;-80
2023/05/06 06:16:31;;;;;;;5.35;1.45;;;26.90;99.90;;;;;;7284237;19;20181;-80
2023/05/06 06:18:58;;;;;;;4.82;1.77;;;26.70;99.90;;;;;;7283674;19;20227;-80
2023/05/06 06:21:24;;;;;;;4.28;1.77;;;26.60;99.90;;;;;;7283918;19;20541;-81
2023/05/06 06:23:51;;;;;;;4.30;1.80;;;26.90;99.90;;;;;;7283067;19;20189;-81
2023/05/06 06:26:18;;;;;;;4.50;1.63;;;26.90;99.90;;;;;;7284684;19;20215;-80
2023/05/06 06:28:44;;;;;;;3.88;1.50;;;27.60;99.90;;;;;;7283504;19;20185;-81
2023/05/06 06:31:10;;;;;;;5.03;1.48;;;28.00;99.90;;;;;;7285046;19;20177;-81
2023/05/06 06:33:36;;;;;;;5.07;1.65;;;27.60;99.90;;;;;;7295688;19;20261;-80
2023/05/06 06:36:02;;;;;;;5.55;1.90;;;27.40;99.90;;;;;;7301968;19;20184;-81
2023/05/06 06:38:27;;;;;;;4.40;2.05;;;27.70;99.90;;;;;;7283608;19;20188;-81
2023/05/06 06:40:53;;;;;;;5.05;1.95;;;28.40;99.90;;;;;;7283332;19;20181;-81
2023/05/06 06:43:19;;;;;;;5.30;2.20;;;28.80;99.90;;;;;;7283837;19;20189;-80
2023/05/06 06:45:57;;;;;;;7.03;2.40;;;28.00;99.90;;;;;;7283043;19;20242;-81
2023/05/06 06:48:23;;;;;;;10.27;3.30;;;27.20;99.90;;;;;;7284114;19;20195;-81
2023/05/06 06:50:49;;;;;;;12.02;3.40;;;26.50;99.90;;;;;;7283376;19;20188;-81
2023/05/06 06:53:15;;;;;;;11.80;4.00;;;25.80;99.90;;;;;;7281982;19;20181;-81
2023/05/06 06:55:47;;;;;;;9.65;3.88;;;25.20;99.90;;;;;;7281501;19;20189;-81
2023/05/06 06:58:12;;;;;;;10.35;3.83;;;24.70;99.90;;;;;;7283295;19;20193;-81
2023/05/06 07:00:38;;;;;;;10.38;3.70;;;24.40;99.90;;;;;;7282780;19;20193;-81
2023/05/06 07:03:04;;;;;;;10.70;4.03;;;24.00;99.90;;;;;;7305778;19;20177;-81
2023/05/06 07:05:30;;;;;;;16.65;4.88;;;23.90;99.90;;;;;;7282773;19;20185;-81
2023/05/06 07:07:55;;;;;;;12.70;4.63;;;23.80;99.90;;;;;;7283128;19;20592;-81
2023/05/06 07:10:22;;;;;;;12.40;4.40;;;23.60;99.90;;;;;;7282974;19;20185;-81
2023/05/06 07:12:47;;;;;;;10.87;4.20;;;23.40;99.90;;;;;;7281500;19;20202;-81
2023/05/06 07:15:13;;;;;;;11.17;3.97;;;23.10;99.90;;;;;;7286134;19;20189;-81
2023/05/06 07:17:39;;;;;;;11.40;4.07;;;22.90;99.90;;;;;;7289615;19;20641;-81
2023/05/06 07:20:05;;;;;;;11.33;4.00;;;22.90;99.90;;;;;;7310211;19;20185;-80
2023/05/06 07:22:31;;;;;;;15.03;4.47;;;23.00;99.90;;;;;;7289500;19;20177;-81
2023/05/06 07:24:57;;;;;;;10.67;4.20;;;23.20;99.90;;;;;;7289353;19;20193;-82
2023/05/06 07:27:23;;;;;;;10.73;4.47;;;24.50;99.90;;;;;;7286660;19;20185;-81
2023/05/06 07:29:49;;;;;;;10.43;3.97;;;25.60;99.90;;;;;;7288510;19;20188;-81
2023/05/06 07:32:15;;;;;;;11.70;4.93;;;26.50;99.90;;;;;;7288123;19;20189;-82
2023/05/06 07:34:41;;;;;;;12.32;4.75;;;26.10;99.90;;;;;;7287529;19;20192;-81
2023/05/06 07:37:07;;;;;;;10.90;4.57;;;26.60;99.90;;;;;;7290465;19;20205;-81
2023/05/06 07:39:33;;;;;;;12.45;4.72;;;27.40;99.90;;;;;;7308681;19;20212;-81
2023/05/06 07:42:00;;;;;;;11.43;4.57;;;28.30;99.90;;;;;;7286077;19;20189;-82
2023/05/06 07:44:26;;;;;;;11.50;4.65;;;28.70;99.90;;;;;;7285035;19;20198;-82
2023/05/06 07:46:52;;;;;;;10.80;3.97;;;29.60;99.90;;;;;;7288956;19;20196;-83
2023/05/06 07:49:18;;;;;;;11.73;4.88;;;30.50;99.90;;;;;;7287590;19;20193;-82
2023/05/06 07:51:44;;;;;;;13.07;4.40;;;30.50;99.90;;;;;;7288580;19;20684;-84
2023/05/06 07:54:10;;;;;;;10.70;4.43;;;31.40;99.90;;;;;;7287658;19;20185;-83
2023/05/06 07:56:35;;;;;;;11.13;4.25;;;32.80;99.10;;;;;;7306895;19;20280;-84
2023/05/06 07:59:01;;;;;;;10.30;3.80;;;31.90;97.80;;;;;;7300788;19;20627;-82
2023/05/06 08:01:28;;;;;;;10.05;4.03;;;32.60;95.90;;;;;;7287422;19;20704;-83
2023/05/06 08:03:56;;;;;;;10.10;4.15;;;32.60;95.00;;;;;;7287984;19;20200;-82
2023/05/06 08:06:22;;;;;;;10.32;3.80;;;34.00;93.30;;;;;;7288081;19;20215;-82
2023/05/06 08:08:47;;;;;;;10.05;3.97;;;35.10;91.20;;;;;;7286340;19;20862;-82
2023/05/06 08:11:13;;;;;;;11.25;4.30;;;35.80;87.40;;;;;;7287514;19;20181;-82
2023/05/06 08:13:39;;;;;;;8.68;3.95;;;36.50;83.70;;;;;;7287302;19;20679;-81
2023/05/06 08:16:05;;;;;;;8.93;3.83;;;36.40;79.10;;;;;;7309486;19;20189;-82
2023/05/06 08:18:32;;;;;;;8.30;3.20;;;35.80;77.90;;;;;;7289188;19;20196;-82
2023/05/06 08:20:58;;;;;;;7.40;3.08;;;35.00;78.10;;;;;;7287040;19;20727;-81
2023/05/06 08:23:24;;;;;;;8.45;2.92;;;34.60;79.20;;;;;;7286283;19;20196;-81
2023/05/06 08:25:50;;;;;;;9.13;3.28;;;35.20;80.90;;;;;;7286186;19;20268;-81
2023/05/06 08:28:15;;;;;;;8.60;3.10;;;34.40;80.40;;;;;;7287436;19;20192;-82
2023/05/06 08:30:41;;;;;;;8.57;3.30;;;34.40;80.80;;;;;;7287612;19;20193;-80
2023/05/06 08:33:07;;;;;;;9.75;3.10;;;35.10;77.60;;;;;;7288991;19;20185;-80
2023/05/06 08:35:33;;;;;;;8.95;3.40;;;35.30;76.30;;;;;;7311361;19;20205;-80
2023/05/06 08:37:58;;;;;;;9.48;3.53;;;34.80;76.90;;;;;;7287626;19;20644;-81
2023/05/06 08:40:26;;;;;;;11.40;3.38;;;34.90;78.00;;;;;;7285622;19;20216;-80
2023/05/06 08:42:54;;;;;;;7.57;3.15;;;35.90;75.10;;;;;;7287358;19;20184;-81
2023/05/06 08:45:20;;;;;;;7.78;3.20;;;34.10;75.30;;;;;;7286529;19;20670;-80
2023/05/06 08:47:46;;;;;;;9.63;3.60;;;33.30;78.40;;;;;;7286628;19;20252;-80
2023/05/06 08:50:12;;;;;;;6.38;2.40;;;32.40;80.40;;;;;;7285579;19;20568;-80
2023/05/06 08:52:38;;;;;;;5.45;1.70;;;32.10;83.50;;;;;;7286115;19;20312;-81
2023/05/06 08:55:05;;;;;;;7.15;2.03;;;32.60;81.00;;;;;;7308279;19;20202;-81
2023/05/06 08:57:33;;;;;;;5.97;2.20;;;33.70;78.90;;;;;;7285669;19;20197;-80
2023/05/06 08:59:59;;;;;;;6.15;2.70;;;34.00;76.30;;;;;;7286187;19;20273;-80
2023/05/06 09:02:25;;;;;;;8.77;2.60;;;34.50;78.10;;;;;;7286140;19;20196;-80
2023/05/06 09:04:52;;;;;;;6.10;2.10;;;33.70;77.40;;;;;;7286859;19;20189;-82
2023/05/06 09:07:21;;;;;;;5.93;1.80;;;32.50;79.90;;;;;;7284120;19;20188;-82
2023/05/06 09:09:48;;;;;;;6.13;2.03;;;31.60;79.40;;;;;;7287683;19;20200;-82
2023/05/06 09:12:13;;;;;;;6.43;2.03;;;30.80;81.80;;;;;;7287769;19;20265;-82
2023/05/06 09:14:40;;;;;;;6.25;1.85;;;29.70;83.60;;;;;;7288535;19;20197;-81
2023/05/06 09:17:25;;;;;;;3.30;1.52;;;29.40;85.30;;;;;;7301226;19;20185;-83
2023/05/06 09:19:55;;;;;;;6.15;1.92;;;29.20;85.40;;;;;;7288586;19;20192;-83
2023/05/06 09:22:29;;;;;;;7.85;1.80;;;29.00;87.30;;;;;;7286683;19;20710;-82
2023/05/06 09:24:56;;;;;;;4.38;1.40;;;29.00;86.90;;;;;;7285523;19;20193;-82
2023/05/06 09:27:26;;;;;;;7.28;1.90;;;29.30;85.70;;;;;;7287500;19;20201;-83
2023/05/06 09:30:13;;;;;;;6.57;1.52;;;28.80;85.60;;;;;;7288378;19;20201;-83
2023/05/06 09:32:39;;;;;;;4.20;1.33;;;28.50;87.10;;;;;;7266076;19;20196;-81
2023/05/06 09:35:07;;;;;;;4.00;1.30;;;27.40;90.30;;;;;;7310990;19;20226;-81
2023/05/06 09:37:35;;;;;;;5.95;1.60;;;26.60;90.50;;;;;;7286707;19;20272;-82
2023/05/06 09:40:01;;;;;;;5.60;1.40;;;26.50;91.50;;;;;;7289309;19;20199;-82
2023/05/06 09:42:29;;;;;;;6.80;1.35;;;26.40;91.10;;;;;;7286538;19;20585;-82
2023/05/06 09:45:07;;;;;;;5.70;1.23;;;26.40;92.10;;;;;;7286689;19;20265;-82
2023/05/06 09:47:34;;;;;;;6.50;1.73;;;25.80;92.10;;;;;;7284683;19;20181;-82
2023/05/06 09:50:03;;;;;;;4.43;1.38;;;26.30;93.00;;;;;;7286742;19;20230;-82
2023/05/06 09:52:30;;;;;;;5.80;1.58;;;26.00;92.80;;;;;;7286474;19;20188;-82
2023/05/06 09:55:00;;;;;;;6.35;1.35;;;26.70;93.10;;;;;;7285357;19;20195;-82
2023/05/06 09:57:29;;;;;;;5.68;1.30;;;28.00;92.10;;;;;;7286989;19;20753;-82
2023/05/06 09:59:57;;;;;;;5.70;1.48;;;29.90;91.30;;;;;;7284426;19;20216;-82
2023/05/06 10:02:23;;;;;;;4.63;1.20;;;30.70;86.00;;;;;;7287479;19;20196;-82
2023/05/06 10:04:49;;;;;;;5.60;1.13;;;31.00;87.60;;;;;;7288087;19;20541;-82
2023/05/06 10:07:22;;;;;;;3.45;1.20;;;32.30;87.00;;;;;;7286464;19;20184;-82
2023/05/06 10:09:50;;;;;;;5.50;1.40;;;31.80;80.40;;;;;;7285478;19;20513;-82
2023/05/06 10:12:17;;;;;;;5.10;1.10;;;30.50;82.20;;;;;;7284014;19;20196;-82
2023/05/06 10:14:42;;;;;;;5.85;1.30;;;30.60;82.40;;;;;;7284274;19;20184;-82
2023/05/06 10:17:10;;;;;;;5.43;1.48;;;31.20;83.40;;;;;;7291321;19;20648;-80
2023/05/06 10:19:40;;;;;;;3.83;1.15;;;30.50;82.20;;;;;;7307342;19;20192;-81
2023/05/06 10:22:35;;;;;;;5.07;1.30;;;30.90;83.00;;;;;;7306643;19;20280;-80
2023/05/06 10:25:26;;;;;;;4.90;1.50;;;30.10;82.80;;;;;;7286197;19;20299;-81
2023/05/06 10:27:52;;;;;;;4.43;1.00;;;30.90;82.20;;;;;;7182545;19;2006287;-82
2023/05/06 10:30:18;;;;;;;3.25;1.00;;;32.40;82.40;;;;;;7286403;19;20225;-82
2023/05/06 10:32:44;;;;;;;3.65;1.17;;;31.50;78.20;;;;;;7283927;19;20183;-82
2023/05/06 10:35:41;;;;;;;6.10;1.40;;;31.80;78.50;;;;;;7282830;19;20198;-83
2023/05/06 10:38:13;;;;;;;5.15;1.23;;;32.00;77.40;;;;;;7275791;19;20184;-82
2023/05/06 10:40:40;;;;;;;5.07;1.30;;;32.60;79.40;;;;;;7285814;19;20191;-82
2023/05/06 10:43:31;;;;;;;4.53;1.15;;;32.60;75.40;;;;;;7307971;19;20715;-82
2023/05/06 10:46:12;;;;;;;8.10;1.67;;;32.70;75.70;;;;;;7184959;19;2004466;-82
2023/05/06 10:48:58;;;;;;;6.90;1.60;;;31.30;76.30;;;;;;7270182;19;20199;-82
2023/05/06 10:51:26;;;;;;;6.90;1.40;;;30.20;79.20;;;;;;7295821;19;20185;-83
2023/05/06 10:54:02;;;;;;;4.35;1.40;;;29.80;83.00;;;;;;7295117;19;20189;-82
2023/05/06 10:56:30;;;;;;;5.88;1.48;;;30.60;83.30;;;;;;7289275;19;20213;-82
2023/05/06 10:58:56;;;;;;;7.10;1.38;;;30.90;78.10;;;;;;7291053;19;20184;-82
2023/05/06 11:01:26;;;;;;;5.60;1.23;;;30.90;80.70;;;;;;7290362;19;20649;-81
2023/05/06 11:03:52;;;;;;;4.65;1.52;;;31.40;81.60;;;;;;7291823;19;20192;-82
2023/05/06 11:06:35;;;;;;;5.93;1.60;;;31.90;79.60;;;;;;7289549;19;20193;-82
2023/05/06 11:09:03;;;;;;;4.65;1.30;;;32.10;77.50;;;;;;7290966;19;20184;-83
2023/05/06 11:11:50;;;;;;;6.63;1.60;;;32.00;79.60;;;;;;7290018;19;20192;-81
2023/05/06 11:14:36;;;;;;;6.55;1.20;;;31.60;79.00;;;;;;7186537;19;2004578;-82
2023/05/06 11:17:06;;;;;;;7.78;1.50;;;31.20;81.30;;;;;;7292533;19;20228;-82
2023/05/06 11:19:36;;;;;;;5.75;1.48;;;30.90;82.00;;;;;;7292504;19;20568;-82
2023/05/06 11:22:04;;;;;;;5.82;1.45;;;30.50;81.00;;;;;;7291109;19;20200;-83
2023/05/06 11:24:41;;;;;;;4.50;1.27;;;30.10;84.60;;;;;;7290723;19;20184;-83
2023/05/06 11:27:08;;;;;;;4.90;1.08;;;29.80;83.80;;;;;;7278135;19;20200;-82
2023/05/06 11:29:34;;;;;;;7.78;1.35;;;29.50;85.10;;;;;;7313958;19;20192;-83
2023/05/06 11:32:00;;;;;;;5.13;1.50;;;29.30;84.60;;;;;;7290336;19;20189;-82
2023/05/06 11:34:28;;;;;;;8.57;2.05;;;29.00;84.20;;;;;;7290428;19;20203;-82
2023/05/06 11:36:57;;;;;;;7.05;1.50;;;28.80;85.80;;;;;;7290183;19;20188;-82
2023/05/06 11:39:29;;;;;;;6.13;1.63;;;28.80;86.00;;;;;;7289871;19;20196;-84
2023/05/06 11:41:56;;;;;;;9.18;2.58;;;28.80;85.90;;;;;;7288690;19;20230;-82
2023/05/06 11:44:27;;;;;;;7.68;1.98;;;28.90;87.30;;;;;;7290573;19;20197;-83
2023/05/06 11:46:57;;;;;;;7.30;2.78;;;29.10;85.40;;;;;;7290210;19;20648;-82
2023/05/06 11:49:23;;;;;;;10.32;2.58;;;28.50;84.30;;;;;;7288736;19;20213;-83
2023/05/06 11:51:49;;;;;;;4.65;1.40;;;28.40;86.60;;;;;;7291283;19;20256;-82
2023/05/06 11:54:17;;;;;;;5.97;1.60;;;27.70;86.80;;;;;;7289848;19;20204;-82
2023/05/06 11:56:55;;;;;;;4.20;1.10;;;27.10;85.90;;;;;;7290590;19;20189;-83
2023/05/06 11:59:30;;;;;;;6.00;1.40;;;27.00;89.70;;;;;;7289532;19;20196;-83
2023/05/06 12:01:57;;;;;;;6.07;1.38;;;26.90;90.00;;;;;;7287243;19;20203;-82
2023/05/06 12:04:23;;;;;;;6.55;1.70;;;26.50;90.80;;;;;;7289331;19;20190;-82
2023/05/06 12:06:49;;;;;;;5.55;1.65;;;26.10;91.30;;;;;;7285172;19;20226;-81
2023/05/06 12:09:15;;;;;;;8.05;2.05;;;25.80;91.70;;;;;;7288102;19;20181;-83
2023/05/06 12:11:43;;;;;;;5.82;1.50;;;25.70;93.00;;;;;;7288009;19;20185;-82
2023/05/06 12:14:09;;;;;;;7.22;1.40;;;25.50;92.40;;;;;;7288090;19;20181;-81
2023/05/06 12:16:36;;;;;;;5.22;1.52;;;25.10;93.90;;;;;;7309913;19;20193;-82
2023/05/06 12:19:02;;;;;;;8.05;1.80;;;25.10;94.60;;;;;;7287361;19;20668;-82
2023/05/06 12:21:28;;;;;;;6.15;1.65;;;25.00;94.50;;;;;;7287773;19;20194;-83
2023/05/06 12:23:58;;;;;;;9.05;2.08;;;24.90;95.00;;;;;;7289163;19;20208;-82
2023/05/06 12:26:26;;;;;;;6.10;1.70;;;25.10;95.00;;;;;;7287210;19;20710;-83
2023/05/06 12:29:06;;;;;;;9.07;1.98;;;25.20;94.50;;;;;;7286197;19;20520;-82
2023/05/06 12:31:31;;;;;;;7.22;1.75;;;24.90;94.80;;;;;;7288119;19;20192;-82
2023/05/06 12:33:57;;;;;;;5.65;1.75;;;24.70;94.60;;;;;;7287695;19;20193;-82
2023/05/06 12:36:23;;;;;;;7.63;1.98;;;24.80;95.20;;;;;;7288448;19;20301;-82
2023/05/06 12:38:53;;;;;;;6.93;1.73;;;25.10;96.00;;;;;;7288825;19;20555;-83
2023/05/06 12:41:20;;;;;;;8.32;1.90;;;25.40;95.20;;;;;;7284281;19;20185;-84
2023/05/06 12:43:46;;;;;;;7.80;1.77;;;25.60;93.10;;;;;;7286867;19;20225;-82
2023/05/06 12:46:14;;;;;;;17.75;2.53;;;25.90;93.70;;;;;;7287137;19;20188;-82
2023/05/06 12:48:54;;;;;;;7.53;2.00;;;25.90;93.10;;;;;;7286895;19;20192;-81
2023/05/06 12:51:20;;;;;;;8.25;1.98;;;26.00;93.30;;;;;;7288980;19;20192;-83